Time;durP1;ratioP1;P1;durP2;ratioP2;P2;SDS_P1;SDS_P2;PMS_P1;PMS_P2;Temp;Humidity;BMP_temperature;BMP_pressure;BME280_temperature;BME280_humidity;BME280_pressure;Samples;Min_cycle;Max_cycle;Signal;HPM_P1;HPM_P2
2023/04/03 00:01:06;;;;;;;3.83;2.40;;;;;;;2.77;68.35;99880.75;5076047;28;42659;-84
2023/04/03 00:03:34;;;;;;;3.77;2.10;;;;;;;2.76;68.28;99878.16;5075524;28;41167;-84
2023/04/03 00:06:02;;;;;;;3.47;1.90;;;;;;;2.75;68.61;99886.88;5092928;28;40015;-82
2023/04/03 00:08:32;;;;;;;2.40;2.20;;;;;;;2.67;69.24;99857.38;5075774;28;40692;-82
2023/04/03 00:11:00;;;;;;;2.40;2.10;;;;;;;2.72;68.68;99876.47;5092372;28;44652;-79
2023/04/03 00:13:27;;;;;;;2.07;1.90;;;;;;;2.75;68.55;99889.50;5092540;28;42156;-85
2023/04/03 00:15:55;;;;;;;2.57;2.17;;;;;;;2.75;68.60;99889.50;5075452;28;38716;-83
2023/04/03 00:18:23;;;;;;;2.47;1.80;;;;;;;2.75;68.42;99895.59;5092233;28;40934;-80
2023/04/03 00:20:51;;;;;;;3.07;2.07;;;;;;;2.77;68.25;99896.44;5093694;28;42914;-79
2023/04/03 00:23:18;;;;;;;3.00;2.00;;;;;;;2.79;68.30;99896.41;5092121;28;41434;-80
2023/04/03 00:25:48;;;;;;;2.50;1.93;;;;;;;2.81;68.65;99897.28;5075292;28;40271;-81
2023/04/03 00:28:15;;;;;;;4.53;2.23;;;;;;;2.81;68.62;99881.56;5075320;28;40455;-79
2023/04/03 00:30:43;;;;;;;3.70;2.23;;;;;;;2.83;68.51;99885.03;5075471;28;41775;-80
2023/04/03 00:33:13;;;;;;;2.27;2.07;;;;;;;2.84;69.05;99884.16;5092277;28;42992;-81
2023/04/03 00:35:42;;;;;;;3.97;2.57;;;;;;;2.86;68.80;99882.34;5075764;28;39116;-82
2023/04/03 00:38:10;;;;;;;2.63;2.10;;;;;;;2.89;68.83;99885.78;5091373;28;41775;-82
2023/04/03 00:40:40;;;;;;;3.97;2.50;;;;;;;2.94;69.31;99872.66;5074916;28;42311;-83
2023/04/03 00:43:14;;;;;;;4.90;2.47;;;;;;;3.00;69.30;99879.53;5075170;28;41271;-79
2023/04/03 00:45:43;;;;;;;3.27;2.33;;;;;;;3.04;69.30;99876.84;5089040;28;40674;-77
2023/04/03 00:48:16;;;;;;;3.27;2.27;;;;;;;3.10;69.57;99868.88;5091826;28;42688;-80
2023/04/03 00:50:46;;;;;;;2.20;2.00;;;;;;;3.12;69.63;99867.13;5089071;28;43389;-82
2023/04/03 00:53:17;;;;;;;2.40;2.17;;;;;;;3.18;69.55;99866.16;5074907;28;41381;-80
2023/04/03 00:55:46;;;;;;;2.50;2.20;;;;;;;3.28;69.89;99872.09;5088835;28;40889;-81
2023/04/03 00:58:18;;;;;;;2.90;2.10;;;;;;;3.32;69.40;99872.03;5074835;28;40853;-81
2023/04/03 01:00:55;;;;;;;2.63;2.20;;;;;;;3.31;69.30;99872.06;5091702;28;42908;-83
2023/04/03 01:03:23;;;;;;;3.53;2.00;;;;;;;3.33;69.37;99871.16;5075014;28;41290;-82
2023/04/03 01:05:52;;;;;;;2.10;1.90;;;;;;;3.33;69.55;99870.28;5074878;28;40157;-84
2023/04/03 01:08:19;;;;;;;3.70;2.40;;;;;;;3.35;70.41;99865.84;5074554;28;40460;-83
2023/04/03 01:10:47;;;;;;;1.90;1.80;;;;;;;3.30;71.01;99852.00;5091629;28;43615;-81
2023/04/03 01:13:23;;;;;;;2.37;2.17;;;;;;;3.43;69.98;99877.09;5091571;28;40804;-78
2023/04/03 01:15:52;;;;;;;2.30;1.93;;;;;;;3.48;70.79;99865.63;5074651;28;39066;-80
2023/04/03 01:18:21;;;;;;;4.33;2.80;;;;;;;3.53;70.72;99865.53;5091627;28;42470;-82
2023/04/03 01:21:26;;;;;;;3.43;2.43;;;;;;;3.58;71.00;99872.44;5074749;28;43261;-82
2023/04/03 01:24:23;;;;;;;2.83;2.27;;;;;;;3.65;70.68;99872.31;5091442;28;43037;-78
2023/04/03 01:26:51;;;;;;;3.80;2.40;;;;;;;3.70;70.97;99879.22;5091783;28;41132;-81
2023/04/03 01:29:21;;;;;;;2.80;2.50;;;;;;;3.76;70.45;99868.59;5074349;28;42079;-82
2023/04/03 01:31:55;;;;;;;4.70;2.83;;;;;;;3.70;71.02;99853.03;5074753;28;42803;-81
2023/04/03 01:34:23;;;;;;;4.40;2.30;;;;;;;3.83;70.78;99867.59;5074251;28;41487;-81
2023/04/03 01:36:52;;;;;;;4.27;2.13;;;;;;;3.91;71.00;99877.94;5074717;28;40263;-80
2023/04/03 01:39:21;;;;;;;2.50;2.30;;;;;;;3.84;70.72;99858.84;5091301;28;41733;-78
2023/04/03 01:41:49;;;;;;;3.37;2.70;;;;;;;4.02;70.53;99882.97;5074364;28;41687;-83
2023/04/03 01:44:30;;;;;;;3.13;2.43;;;;;;;4.07;70.45;99882.00;5074233;28;40848;-81
2023/04/03 01:46:59;;;;;;;2.73;2.40;;;;;;;3.70;69.98;99810.25;5074587;28;39346;-81
2023/04/03 01:49:29;;;;;;;2.97;2.20;;;;;;;4.16;69.90;99880.94;5092869;28;41746;-81
2023/04/03 01:51:57;;;;;;;3.87;2.20;;;;;;;4.18;69.86;99884.41;5096064;28;42804;-78
2023/04/03 01:54:25;;;;;;;2.90;2.40;;;;;;;4.19;69.95;99873.03;5102066;28;42475;-83
2023/04/03 01:56:53;;;;;;;2.60;2.10;;;;;;;4.23;69.68;99877.28;5084896;28;38927;-79
2023/04/03 01:59:22;;;;;;;2.67;2.20;;;;;;;4.26;69.56;99874.59;5100853;28;41965;-80
2023/04/03 02:01:50;;;;;;;3.53;2.03;;;;;;;4.24;69.68;99874.63;5085097;28;41620;-80
2023/04/03 02:04:19;;;;;;;3.23;2.17;;;;;;;4.31;69.48;99885.88;5100259;28;42855;-82
2023/04/03 02:06:46;;;;;;;2.63;2.00;;;;;;;4.32;69.76;99879.75;5096348;28;40148;-83
2023/04/03 02:09:14;;;;;;;2.10;1.90;;;;;;;4.34;69.81;99875.31;5077091;28;40852;-80
2023/04/03 02:11:42;;;;;;;2.60;2.00;;;;;;;4.36;69.68;99881.38;5077751;28;41888;-84
2023/04/03 02:14:11;;;;;;;5.57;2.33;;;;;;;4.38;69.50;99876.09;5076637;28;41205;-82
2023/04/03 02:16:39;;;;;;;2.20;1.83;;;;;;;4.40;69.72;99877.81;5078070;28;39157;-81
2023/04/03 02:19:07;;;;;;;2.77;1.80;;;;;;;4.43;69.64;99879.50;5077463;28;41279;-79
2023/04/03 02:21:37;;;;;;;3.10;2.20;;;;;;;4.32;69.38;99864.00;5094349;28;42789;-82
2023/04/03 02:24:05;;;;;;;3.90;3.10;;;;;;;4.44;69.69;99882.09;5077090;28;41927;-84
2023/04/03 02:26:33;;;;;;;3.67;2.40;;;;;;;4.47;69.64;99876.78;5077129;28;38596;-81
2023/04/03 02:29:00;;;;;;;3.17;2.73;;;;;;;4.50;69.85;99883.72;5077176;28;40952;-83
2023/04/03 02:31:29;;;;;;;3.00;2.10;;;;;;;4.51;69.95;99881.06;5094088;28;42746;-81
2023/04/03 02:33:57;;;;;;;2.57;2.37;;;;;;;4.54;70.07;99888.88;5094276;28;43046;-81
2023/04/03 02:36:25;;;;;;;3.93;2.60;;;;;;;4.57;70.17;99882.72;5094145;28;39826;-80
2023/04/03 02:38:58;;;;;;;3.57;2.80;;;;;;;4.47;70.44;99861.03;5077080;28;40806;-80
2023/04/03 02:41:33;;;;;;;3.23;2.50;;;;;;;4.58;70.38;99880.03;5076879;28;42202;-83
2023/04/03 02:44:02;;;;;;;3.70;2.50;;;;;;;4.62;70.23;99881.69;5077248;28;41199;-81
2023/04/03 02:46:29;;;;;;;2.40;2.20;;;;;;;4.63;70.31;99875.56;5094020;28;40988;-81
2023/04/03 02:48:58;;;;;;;4.40;2.93;;;;;;;4.53;70.46;99855.66;5093904;28;41786;-82
2023/04/03 02:51:25;;;;;;;4.97;3.20;;;;;;;4.69;70.75;99883.31;5076852;28;42883;-83
2023/04/03 02:53:55;;;;;;;3.20;2.97;;;;;;;4.62;70.57;99871.19;5076740;28;41269;-82
2023/04/03 02:56:28;;;;;;;3.43;3.17;;;;;;;4.52;71.01;99842.59;5077243;28;39236;-82
2023/04/03 02:58:56;;;;;;;3.90;3.17;;;;;;;4.77;71.19;99875.25;5076359;28;40783;-80
2023/04/03 03:01:24;;;;;;;5.63;3.20;;;;;;;4.68;71.04;99859.72;5075905;28;41764;-81
2023/04/03 03:03:52;;;;;;;5.47;3.60;;;;;;;4.79;71.57;99873.44;5076622;28;42074;-81
2023/04/03 03:06:20;;;;;;;3.83;3.13;;;;;;;4.82;71.13;99880.41;5076585;28;40098;-80
2023/04/03 03:08:47;;;;;;;3.60;3.30;;;;;;;4.84;71.60;99878.56;5076580;28;40834;-82
2023/04/03 03:11:16;;;;;;;7.57;3.50;;;;;;;4.87;71.28;99875.88;5076187;28;42445;-80
2023/04/03 03:13:45;;;;;;;3.33;3.03;;;;;;;4.91;71.32;99881.03;5076394;28;41156;-80
2023/04/03 03:16:13;;;;;;;3.20;2.90;;;;;;;4.95;71.30;99879.19;5093376;28;39969;-80
2023/04/03 03:18:41;;;;;;;4.13;3.37;;;;;;;4.94;71.83;99877.50;5076574;28;41799;-83
2023/04/03 03:21:10;;;;;;;4.70;3.20;;;;;;;4.86;71.72;99859.28;5076426;28;42983;-81
2023/04/03 03:23:38;;;;;;;3.60;3.30;;;;;;;4.99;72.04;99878.22;5076312;28;42326;-80
2023/04/03 03:26:09;;;;;;;4.10;3.60;;;;;;;5.00;72.07;99877.31;5076294;28;39066;-81
2023/04/03 03:28:39;;;;;;;6.17;3.37;;;;;;;4.92;71.66;99855.66;5076357;28;41803;-82
2023/04/03 03:31:10;;;;;;;4.17;3.10;;;;;;;5.00;71.90;99870.31;5093513;28;43790;-79
2023/04/03 03:33:40;;;;;;;5.03;3.50;;;;;;;5.03;72.22;99878.13;5076661;28;41025;-82
2023/04/03 03:36:08;;;;;;;3.67;3.23;;;;;;;4.86;72.64;99858.41;5093801;28;40984;-81
2023/04/03 03:38:37;;;;;;;6.00;3.40;;;;;;;4.96;73.24;99870.41;5076375;28;40773;-83
2023/04/03 03:41:06;;;;;;;6.17;3.37;;;;;;;4.96;72.86;99863.41;5075823;28;42700;-81
2023/04/03 03:43:35;;;;;;;7.07;3.43;;;;;;;4.95;73.12;99871.31;5092804;28;42323;-79
2023/04/03 03:46:05;;;;;;;5.60;3.47;;;;;;;4.92;73.16;99864.41;5075662;28;40343;-80
2023/04/03 03:48:34;;;;;;;5.27;2.87;;;;;;;4.99;73.15;99873.84;5075634;28;40646;-79
2023/04/03 03:51:02;;;;;;;5.20;3.07;;;;;;;4.94;72.85;99870.47;5075687;28;42896;-81
2023/04/03 03:53:35;;;;;;;4.23;2.63;;;;;;;4.85;72.27;99872.44;5076037;28;41995;-84
2023/04/03 03:56:08;;;;;;;4.83;3.07;;;;;;;4.88;72.31;99867.97;5075769;28;38858;-81
2023/04/03 03:58:37;;;;;;;3.43;2.73;;;;;;;4.87;72.08;99874.13;5093055;28;41780;-81
2023/04/03 04:01:07;;;;;;;5.53;3.03;;;;;;;4.74;72.19;99877.94;5076138;28;41503;-82
2023/04/03 04:03:41;;;;;;;3.87;2.70;;;;;;;4.81;71.57;99876.03;5076135;28;41344;-82
2023/04/03 04:06:11;;;;;;;3.10;2.87;;;;;;;4.81;71.92;99873.41;5076288;28;38781;-82
2023/04/03 04:08:39;;;;;;;3.97;2.53;;;;;;;4.79;71.74;99872.59;5075825;28;40487;-84
2023/04/03 04:11:09;;;;;;;6.30;3.23;;;;;;;4.70;71.85;99871.88;5075801;28;42791;-83
2023/04/03 04:13:38;;;;;;;4.83;2.70;;;;;;;4.72;71.99;99877.09;5092787;28;42231;-82
2023/04/03 04:16:07;;;;;;;5.30;2.80;;;;;;;4.68;72.03;99886.81;5075573;28;38909;-82
2023/04/03 04:18:35;;;;;;;3.90;3.23;;;;;;;4.57;72.03;99878.31;5092928;28;42089;-80
2023/04/03 04:21:04;;;;;;;4.80;2.77;;;;;;;4.49;72.16;99890.72;5092410;28;42694;-83
2023/04/03 04:23:33;;;;;;;5.33;2.87;;;;;;;4.45;72.24;99878.56;5075296;28;42246;-80
2023/04/03 04:26:01;;;;;;;4.77;2.90;;;;;;;4.28;71.70;99854.47;5092215;28;40382;-80
2023/04/03 04:28:32;;;;;;;4.60;2.80;;;;;;;4.41;71.95;99874.28;5090342;28;41568;-83
2023/04/03 04:31:02;;;;;;;4.40;2.50;;;;;;;4.38;71.41;99876.97;5092290;28;42804;-82
2023/04/03 04:33:30;;;;;;;5.13;3.10;;;;;;;4.24;71.58;99884.25;5075566;28;41218;-82
2023/04/03 04:36:01;;;;;;;5.13;2.83;;;;;;;4.26;71.67;99887.72;5075490;28;39064;-80
2023/04/03 04:38:30;;;;;;;4.53;3.00;;;;;;;4.16;71.13;99875.69;5092379;28;41907;-78
2023/04/03 04:40:58;;;;;;;5.40;3.47;;;;;;;4.24;71.22;99895.59;5074977;28;42910;-79
2023/04/03 04:43:26;;;;;;;4.30;3.50;;;;;;;4.15;70.96;99881.84;5075131;28;42384;-79
2023/04/03 04:46:03;;;;;;;4.87;3.10;;;;;;;4.24;71.03;99892.13;5092271;28;40760;-83
2023/04/03 04:48:34;;;;;;;5.97;3.03;;;;;;;4.21;71.14;99900.03;5089977;28;41453;-80
2023/04/03 04:51:03;;;;;;;3.63;3.00;;;;;;;4.10;70.96;99886.28;5092151;28;42861;-80
2023/04/03 04:53:33;;;;;;;5.93;3.23;;;;;;;4.18;71.21;99908.00;5092204;28;43137;-81
2023/04/03 04:56:01;;;;;;;3.53;3.23;;;;;;;4.12;71.19;99911.59;5092942;28;39926;-82
2023/04/03 04:58:29;;;;;;;5.03;3.00;;;;;;;4.07;71.17;99913.44;5091834;28;42564;-81
2023/04/03 05:01:00;;;;;;;4.40;2.93;;;;;;;3.94;71.00;99897.09;5074801;28;41613;-79
2023/04/03 05:03:29;;;;;;;3.63;2.97;;;;;;;3.91;70.89;99907.63;5091961;28;42793;-79
2023/04/03 05:05:57;;;;;;;4.30;3.17;;;;;;;3.74;70.90;99899.19;5074890;28;38857;-79
2023/04/03 05:08:25;;;;;;;8.13;3.03;;;;;;;3.80;70.92;99914.81;5075076;28;41307;-85
2023/04/03 05:10:54;;;;;;;4.63;3.10;;;;;;;3.65;71.01;99915.09;5091809;28;42442;-79
2023/04/03 05:13:23;;;;;;;5.30;3.20;;;;;;;3.57;70.99;99917.00;5074353;28;41073;-80
2023/04/03 05:15:50;;;;;;;7.77;3.43;;;;;;;3.50;70.99;99910.13;5091524;28;41132;-82
2023/04/03 05:18:18;;;;;;;3.90;3.30;;;;;;;3.49;71.50;99924.09;5074776;28;41456;-80
2023/04/03 05:20:50;;;;;;;4.80;2.77;;;;;;;3.43;71.32;99924.22;5091791;28;43881;-82
2023/04/03 05:23:18;;;;;;;7.27;3.70;;;;;;;3.28;71.82;99903.50;5088691;28;42361;-80
2023/04/03 05:25:48;;;;;;;6.13;3.23;;;;;;;3.24;72.03;99927.13;5074694;28;39487;-80
2023/04/03 05:28:18;;;;;;;5.60;3.63;;;;;;;3.22;71.97;99926.28;5074309;28;40956;-80
2023/04/03 05:30:46;;;;;;;4.10;3.70;;;;;;;3.23;72.01;99927.13;5091248;28;43117;-80
2023/04/03 05:33:14;;;;;;;5.13;3.53;;;;;;;3.19;72.37;99928.97;5074469;28;42546;-83
2023/04/03 05:35:48;;;;;;;4.27;3.03;;;;;;;3.12;72.48;99919.47;5088442;28;40890;-81
2023/04/03 05:38:20;;;;;;;4.43;3.07;;;;;;;3.15;72.54;99929.88;5088763;28;41913;-82
2023/04/03 05:40:48;;;;;;;4.40;3.33;;;;;;;3.17;72.29;99932.47;5074267;28;42516;-81
2023/04/03 05:43:16;;;;;;;3.00;2.70;;;;;;;3.19;72.67;99930.72;5074234;28;41814;-85
2023/04/03 05:45:49;;;;;;;5.40;3.17;;;;;;;3.17;72.43;99942.94;5091566;28;40017;-78
2023/04/03 05:48:17;;;;;;;3.07;2.73;;;;;;;3.06;73.02;99918.69;5074613;28;40311;-81
2023/04/03 05:50:45;;;;;;;3.53;3.13;;;;;;;3.19;72.56;99941.19;5074123;28;43155;-77
2023/04/03 05:53:23;;;;;;;6.00;2.90;;;;;;;3.16;73.40;99941.22;5074031;28;41250;-77
2023/04/03 05:55:50;;;;;;;4.27;3.00;;;;;;;3.22;72.90;99946.34;5074024;28;38938;-77
2023/04/03 05:58:18;;;;;;;5.30;3.40;;;;;;;3.25;72.97;99947.16;5073959;28;40985;-81
2023/04/03 06:00:50;;;;;;;5.67;3.30;;;;;;;3.31;73.04;99954.06;5074056;28;41754;-80
2023/04/03 06:03:18;;;;;;;6.30;3.47;;;;;;;3.34;72.86;99945.31;5073755;28;41333;-78
2023/04/03 06:05:46;;;;;;;3.93;3.23;;;;;;;3.42;72.58;99943.44;5074006;28;39913;-78
2023/04/03 06:08:14;;;;;;;5.47;3.20;;;;;;;3.45;72.36;99943.38;5091432;28;41828;-77
2023/04/03 06:10:42;;;;;;;4.50;2.90;;;;;;;3.56;72.08;99951.94;5073644;28;42915;-80
2023/04/03 06:13:09;;;;;;;6.43;3.07;;;;;;;3.54;72.27;99954.56;5073701;28;42585;-79
2023/04/03 06:15:37;;;;;;;4.73;3.20;;;;;;;3.65;71.87;99951.78;5090664;28;40759;-77
2023/04/03 06:18:08;;;;;;;3.13;2.83;;;;;;;3.65;71.53;99957.00;5073389;28;41865;-79
2023/04/03 06:20:36;;;;;;;4.90;3.20;;;;;;;3.63;71.01;99957.91;5090859;28;42606;-79
2023/04/03 06:23:04;;;;;;;5.57;3.37;;;;;;;3.52;70.58;99948.50;5072985;28;41389;-76
2023/04/03 06:25:33;;;;;;;4.60;3.20;;;;;;;3.76;70.43;99970.78;5090410;28;39811;-78
2023/04/03 06:28:01;;;;;;;9.20;3.50;;;;;;;3.81;70.00;99974.19;5066906;28;40477;-77
2023/04/03 06:30:29;;;;;;;3.73;3.30;;;;;;;3.88;69.93;99967.94;5087286;28;43368;-76
2023/04/03 06:32:56;;;;;;;4.63;2.80;;;;;;;3.81;69.45;99966.34;5090522;28;42341;-76
2023/04/03 06:35:27;;;;;;;5.73;3.23;;;;;;;4.03;69.63;99985.16;5073179;28;39949;-77
2023/04/03 06:37:55;;;;;;;3.60;2.87;;;;;;;4.24;68.87;99994.38;5108438;28;41630;-78
2023/04/03 06:40:25;;;;;;;4.93;3.03;;;;;;;4.30;68.35;99978.56;5092951;28;41841;-78
2023/04/03 06:42:53;;;;;;;4.30;3.37;;;;;;;4.40;67.43;100001.06;5094255;28;43166;-78
2023/04/03 06:45:22;;;;;;;3.23;2.73;;;;;;;4.59;67.36;100002.44;5093040;28;40211;-78
2023/04/03 06:47:49;;;;;;;2.93;2.60;;;;;;;4.68;67.57;99999.66;5093110;28;40646;-76
2023/04/03 06:50:17;;;;;;;5.23;3.23;;;;;;;4.87;66.85;100017.63;5121551;27;42207;-77
2023/04/03 06:52:47;;;;;;;5.63;2.97;;;;;;;5.03;66.23;100016.41;5073821;28;43191;-78
2023/04/03 06:55:14;;;;;;;5.67;3.13;;;;;;;5.14;65.97;100016.16;5077540;28;41304;-80
2023/04/03 06:57:42;;;;;;;3.77;3.00;;;;;;;5.26;65.39;100022.00;5093535;28;41979;-79
2023/04/03 07:00:11;;;;;;;6.73;2.80;;;;;;;5.63;64.08;100026.41;5072198;28;41675;-81
2023/04/03 07:02:39;;;;;;;4.80;3.27;;;;;;;5.84;63.10;100041.66;5074269;28;42376;-82
2023/04/03 07:05:08;;;;;;;5.27;2.57;;;;;;;6.06;62.12;100047.28;5076090;28;39031;-79
2023/04/03 07:07:37;;;;;;;4.27;2.67;;;;;;;6.33;61.31;100050.97;5109943;28;40736;-78
2023/04/03 07:10:09;;;;;;;4.17;3.10;;;;;;;6.60;60.70;100063.41;5075653;28;42167;-78
2023/04/03 07:12:37;;;;;;;3.43;2.57;;;;;;;6.99;60.15;100068.47;5091320;28;42525;-79
2023/04/03 07:15:06;;;;;;;4.13;2.60;;;;;;;7.55;58.52;100072.03;5091645;28;39957;-78
2023/04/03 07:17:35;;;;;;;5.17;2.87;;;;;;;8.04;57.06;100057.28;5093515;28;41760;-77
2023/04/03 07:20:04;;;;;;;4.83;2.70;;;;;;;8.83;54.35;100092.44;5091519;28;43732;-75
2023/04/03 07:22:32;;;;;;;2.63;2.27;;;;;;;9.67;52.50;100110.44;5109330;28;42289;-77
2023/04/03 07:25:00;;;;;;;2.60;2.40;;;;;;;10.15;48.77;100133.22;5092838;28;39943;-77
2023/04/03 07:27:30;;;;;;;4.40;2.40;;;;;;;11.10;49.93;100104.47;5074958;28;40709;-77
2023/04/03 07:29:58;;;;;;;4.43;2.70;;;;;;;11.18;46.88;100143.88;5091420;28;43707;-78
2023/04/03 07:32:27;;;;;;;4.17;2.27;;;;;;;11.35;48.88;100125.44;5092107;28;42385;-78
2023/04/03 07:34:55;;;;;;;6.60;2.60;;;;;;;11.16;47.22;100134.22;5074624;28;39329;-77
2023/04/03 07:37:23;;;;;;;4.10;2.20;;;;;;;11.03;46.50;100103.00;5092004;28;42050;-77
2023/04/03 07:39:51;;;;;;;3.60;2.27;;;;;;;11.43;45.61;100149.81;5092479;28;43755;-76
2023/04/03 07:42:18;;;;;;;4.10;2.20;;;;;;;11.67;47.15;100140.72;5074869;28;42387;-76
2023/04/03 07:44:48;;;;;;;3.20;1.97;;;;;;;11.83;45.73;100157.72;5091403;28;40665;-76
2023/04/03 07:47:17;;;;;;;5.03;2.57;;;;;;;11.69;44.67;100157.44;5092663;28;42616;-75
2023/04/03 07:49:44;;;;;;;2.93;2.27;;;;;;;12.05;45.39;100151.38;5091464;28;41727;-77
2023/04/03 07:52:12;;;;;;;4.47;2.37;;;;;;;13.12;43.28;100162.81;5091949;28;41930;-77
2023/04/03 07:54:40;;;;;;;2.80;2.10;;;;;;;15.30;39.43;100192.22;5092859;28;40721;-76
2023/04/03 07:57:08;;;;;;;5.27;2.40;;;;;;;17.42;34.61;100224.81;5108416;28;40778;-78
2023/04/03 07:59:35;;;;;;;3.97;2.00;;;;;;;19.06;32.69;100205.75;5091184;28;41594;-77
2023/04/03 08:02:06;;;;;;;2.10;1.90;;;;;;;19.96;30.97;100229.19;5073906;28;41176;-77
2023/04/03 08:04:34;;;;;;;2.40;1.90;;;;;;;20.18;30.75;100229.16;5074920;28;38778;-78
2023/04/03 08:07:02;;;;;;;3.07;2.00;;;;;;;20.17;29.07;100238.22;5074480;28;40534;-83
2023/04/03 08:09:31;;;;;;;4.70;2.30;;;;;;;20.97;27.88;100233.44;5075378;28;41412;-80
2023/04/03 08:11:59;;;;;;;3.37;2.10;;;;;;;21.93;29.15;100211.69;5090981;28;42174;-79
2023/04/03 08:14:26;;;;;;;4.03;2.23;;;;;;;21.39;27.84;100222.72;5090923;28;40695;-78
2023/04/03 08:16:54;;;;;;;4.40;1.97;;;;;;;20.84;29.24;100192.38;5087999;28;42715;-78
2023/04/03 08:19:23;;;;;;;3.67;2.20;;;;;;;20.22;29.92;100214.50;5074826;28;43494;-79
2023/04/03 08:21:53;;;;;;;2.03;1.67;;;;;;;19.04;29.03;100199.69;5125165;27;42309;-80
2023/04/03 08:24:20;;;;;;;2.20;1.53;;;;;;;18.52;31.22;100219.66;5091589;28;39636;-80
2023/04/03 08:26:48;;;;;;;3.70;1.77;;;;;;;18.01;31.38;100206.38;5091414;28;41053;-78
2023/04/03 08:29:16;;;;;;;2.57;1.60;;;;;;;17.95;31.56;100201.44;5108532;28;42975;-82
2023/04/03 08:31:44;;;;;;;3.50;2.10;;;;;;;18.72;31.21;100202.94;5074068;28;41361;-83
2023/04/03 08:34:12;;;;;;;6.07;2.20;;;;;;;19.97;30.59;100214.75;5074689;28;40066;-78
2023/04/03 08:36:42;;;;;;;2.13;1.93;;;;;;;21.37;28.29;100224.72;5070536;28;40980;-80
2023/04/03 08:39:10;;;;;;;3.00;1.77;;;;;;;21.71;27.26;100237.00;5070909;28;42971;-78
2023/04/03 08:41:40;;;;;;;4.23;2.00;;;;;;;21.82;26.51;100236.91;5069730;28;41255;-78
2023/04/03 08:44:17;;;;;;;2.70;1.90;;;;;;;21.88;25.75;100223.88;5091373;28;39311;-78
2023/04/03 08:46:56;;;;;;;3.50;2.13;;;;;;;22.26;26.01;100240.25;5090789;28;40768;-78
2023/04/03 08:49:30;;;;;;;2.03;1.83;;;;;;;23.73;24.99;100246.56;5073839;28;41798;-78
2023/04/03 08:52:09;;;;;;;4.20;2.47;;;;;;;24.92;23.51;100243.84;5091304;28;41790;-77
2023/04/03 08:54:41;;;;;;;2.47;2.00;;;;;;;24.28;23.79;100244.81;5074765;28;39999;-79
2023/04/03 08:57:12;;;;;;;5.53;2.50;;;;;;;24.59;22.84;100259.78;5091925;28;42980;-78
2023/04/03 08:59:43;;;;;;;2.70;2.20;;;;;;;25.52;21.69;100257.66;5090507;28;41798;-79
2023/04/03 09:02:26;;;;;;;3.90;2.30;;;;;;;25.37;21.62;100260.06;5091731;28;43483;-78
2023/04/03 09:04:57;;;;;;;3.13;2.13;;;;;;;26.34;21.15;100265.34;5090557;28;39065;-79
2023/04/03 09:07:38;;;;;;;3.57;2.43;;;;;;;27.98;19.26;100274.50;5092246;28;42727;-78
2023/04/03 09:10:06;;;;;;;2.78;2.00;;;;;;;28.64;18.25;100232.38;5088739;28;42658;-77
2023/04/03 09:12:39;;;;;;;4.13;2.22;;;;;;;28.92;18.34;100257.31;5092101;28;43139;-76
2023/04/03 09:15:14;;;;;;;3.75;2.08;;;;;;;29.59;17.88;100282.09;5089213;28;40063;-76
2023/04/03 09:17:54;;;;;;;2.78;1.73;;;;;;;30.93;17.20;100273.78;5074433;28;20225;-77
2023/04/03 09:20:29;;;;;;;3.33;2.00;;;;;;;31.00;17.25;100275.56;5089983;28;42004;-77
2023/04/03 09:22:59;;;;;;;2.40;1.67;;;;;;;30.39;16.54;100278.75;5090139;28;42603;-77
2023/04/03 09:25:30;;;;;;;2.60;1.60;;;;;;;30.69;16.96;100270.34;5090981;28;40855;-75
2023/04/03 09:27:57;;;;;;;3.22;1.92;;;;;;;30.69;17.13;100275.81;5087035;28;42430;-76
2023/04/03 09:30:27;;;;;;;3.50;2.03;;;;;;;29.07;18.26;100243.72;5073222;28;41660;-78
2023/04/03 09:32:58;;;;;;;3.40;1.70;;;;;;;28.15;19.46;100243.47;5090361;28;42283;-78
2023/04/03 09:35:31;;;;;;;3.03;2.00;;;;;;;28.88;19.59;100243.19;5069965;28;38713;-77
2023/04/03 09:38:02;;;;;;;2.30;2.10;;;;;;;29.92;17.44;100249.88;5069616;28;40677;-78
2023/04/03 09:40:41;;;;;;;2.97;1.80;;;;;;;30.18;17.77;100255.72;5076030;28;42960;-77
2023/04/03 09:43:34;;;;;;;2.43;1.80;;;;;;;28.59;17.22;100251.16;5090068;28;42071;-79
2023/04/03 09:46:25;;;;;;;2.23;2.03;;;;;;;28.02;18.50;100237.72;5079843;28;40764;-84
2023/04/03 09:48:56;;;;;;;2.13;1.90;;;;;;;26.32;20.21;100223.94;5073557;28;40662;-76
2023/04/03 09:51:27;;;;;;;2.77;1.93;;;;;;;25.29;19.98;100236.44;5069246;28;41793;-78
2023/04/03 09:53:57;;;;;;;2.50;1.77;;;;;;;24.45;19.96;100244.03;5069959;28;41181;-81
2023/04/03 09:56:27;;;;;;;2.67;1.80;;;;;;;22.85;21.72;100231.34;5084403;28;40947;-79
2023/04/03 09:59:09;;;;;;;3.17;1.60;;;;;;;22.15;23.30;100216.06;5090905;28;43018;-78
2023/04/03 10:01:39;;;;;;;3.07;1.90;;;;;;;22.94;22.66;100219.69;5089437;28;42406;-79
2023/04/03 10:04:11;;;;;;;4.03;1.67;;;;;;;22.70;21.67;100201.16;5090546;28;41947;-79
2023/04/03 10:06:43;;;;;;;1.73;1.50;;;;;;;22.29;21.48;100220.22;5089138;28;40787;-79
2023/04/03 10:09:21;;;;;;;2.50;1.60;;;;;;;22.10;22.69;100216.50;5088877;28;42415;-77
2023/04/03 10:12:10;;;;;;;2.70;1.70;;;;;;;21.66;21.95;100217.66;5093729;28;42500;-80
2023/04/03 10:14:40;;;;;;;2.57;1.83;;;;;;;21.95;22.54;100204.31;5076186;28;41433;-76
2023/04/03 10:17:19;;;;;;;2.63;1.70;;;;;;;22.06;23.53;100198.84;5072971;28;40654;-78
2023/04/03 10:19:52;;;;;;;2.40;1.80;;;;;;;22.65;23.72;100191.75;5070969;28;41526;-79
2023/04/03 10:22:28;;;;;;;2.93;1.60;;;;;;;24.05;22.19;100210.97;5090604;28;42486;-77
2023/04/03 10:25:05;;;;;;;1.93;1.73;;;;;;;25.29;19.55;100209.34;5091095;28;43136;-78
2023/04/03 10:27:47;;;;;;;3.10;1.60;;;;;;;26.57;17.99;100223.00;5076645;28;39924;-78
2023/04/03 10:30:29;;;;;;;2.87;1.70;;;;;;;28.12;17.21;100232.91;5119664;27;41810;-77
2023/04/03 10:33:11;;;;;;;1.77;1.67;;;;;;;29.52;15.94;100245.63;5072980;28;42359;-77
2023/04/03 10:35:50;;;;;;;1.90;1.60;;;;;;;29.64;15.29;100242.28;5078738;28;42318;-80
2023/04/03 10:38:26;;;;;;;2.47;2.20;;;;;;;30.41;14.48;100249.34;5091529;28;40856;-78
2023/04/03 10:41:03;;;;;;;2.05;1.60;;;;;;;31.38;14.22;100231.53;5092404;28;40653;-80
2023/04/03 10:43:37;;;;;;;1.50;1.40;;;;;;;30.82;14.11;100272.38;5076119;28;41594;-80
2023/04/03 10:46:12;;;;;;;2.58;1.75;;;;;;;30.72;15.68;100239.03;5092581;28;41209;-80
2023/04/03 10:48:54;;;;;;;3.20;2.00;;;;;;;28.38;15.59;100243.59;5124540;27;39922;-80
2023/04/03 10:51:30;;;;;;;4.33;1.90;;;;;;;26.95;16.25;100215.31;5072747;28;42217;-80
2023/04/03 10:54:07;;;;;;;3.20;1.80;;;;;;;28.38;15.53;100237.28;5089608;28;43283;-80
2023/04/03 10:56:40;;;;;;;2.27;1.40;;;;;;;29.46;15.72;100222.63;5087439;28;42061;-80
2023/04/03 10:59:20;;;;;;;2.17;1.57;;;;;;;30.69;15.00;100231.19;5089992;28;40058;-80
2023/04/03 11:01:52;;;;;;;1.90;1.63;;;;;;;28.57;15.43;100245.00;5092643;28;40726;-79
2023/04/03 11:04:25;;;;;;;3.80;2.17;;;;;;;28.96;16.28;100231.34;5091022;28;43034;-80
2023/04/03 11:06:59;;;;;;;2.63;1.70;;;;;;;29.88;16.74;100211.13;5092724;28;42193;-79
2023/04/03 11:09:29;;;;;;;2.57;1.90;;;;;;;28.65;16.26;100217.72;5090343;28;40791;-80
2023/04/03 11:12:03;;;;;;;2.33;1.50;;;;;;;27.58;17.78;100215.50;5072334;28;41664;-81
2023/04/03 11:14:34;;;;;;;2.53;2.10;;;;;;;26.59;16.40;100201.09;5072235;28;42458;-81
2023/04/03 11:17:22;;;;;;;3.40;1.50;;;;;;;24.74;17.88;100202.31;5093046;28;42080;-80
2023/04/03 11:19:57;;;;;;;1.97;1.60;;;;;;;23.03;18.42;100201.75;5090384;28;39827;-82
2023/04/03 11:22:30;;;;;;;3.20;1.50;;;;;;;22.63;20.39;100166.72;5089504;28;42820;-80
2023/04/03 11:25:06;;;;;;;4.17;2.00;;;;;;;22.97;18.89;100192.38;5090486;28;42899;-80
2023/04/03 11:27:43;;;;;;;3.37;1.70;;;;;;;24.75;18.47;100198.63;5075820;28;41990;-80
2023/04/03 11:30:19;;;;;;;4.77;1.53;;;;;;;27.20;18.43;100165.31;5071837;28;39994;-81
2023/04/03 11:33:06;;;;;;;1.73;1.60;;;;;;;28.75;15.64;100199.25;5055550;28;40890;-82
2023/04/03 11:35:35;;;;;;;1.40;1.20;;;;;;;28.80;15.71;100199.59;5062614;28;42991;-83
2023/04/03 11:38:07;;;;;;;2.07;1.60;;;;;;;28.06;16.33;100179.16;5127094;27;42144;-82
2023/04/03 11:40:37;;;;;;;2.07;1.43;;;;;;;27.23;16.63;100189.47;5091733;28;38889;-80
2023/04/03 11:43:25;;;;;;;2.13;1.63;;;;;;;27.98;16.29;100198.22;5092433;28;41159;-80
2023/04/03 11:46:00;;;;;;;2.30;1.50;;;;;;;29.46;15.08;100184.41;5089807;28;44279;-82
2023/04/03 11:48:51;;;;;;;1.53;1.10;;;;;;;30.56;13.08;100209.16;5075162;28;41059;-85
2023/04/03 11:51:43;;;;;;;2.37;1.40;;;;;;;31.44;12.79;100206.09;5090415;28;39981;-82